Flight Track Log - Related Links

Times and Time Zones

All times are in EDT time to prevent confusion due to time zone crossing. See the AAL2007 flight status page for this flight to view local times or setup timezone preferences in your user account.

Time Position Orientation Groundspeed Altitude Reporting Facility
EDT Latitude Longitude Course Direction KTS MPH feet Rate Location/Type
Sat 06:07:58 PM 41.9167 -87.9167 207° Southwest 197 227 2,900  Level Chicago TRACON
Sat 06:08:58 PM 41.8500 -87.9000 169° South 265 305 4,900 2,538 Climbing Chicago TRACON
Sat 06:09:00 PM 41.8137 -88.0751 217° Southwest  Level Estimated
Sat 06:10:00 PM 41.7296 -88.1590 201° Southwest  Level Estimated
Sat 06:10:08 PM 41.7736 -87.9406 202° Southwest 265 305 8,400  Level Chicago Center
Sat 06:11:00 PM 41.6455 -88.2427 197° South  Level Estimated
Sat 06:11:09 PM 41.7042 -87.9875 207° Southwest 280 322 11,700  Level Chicago Center
Sat 06:12:00 PM 41.5459 -88.1991 162° South  Level FlightAware
Sat 06:12:11 PM 41.6264 -88.0386 206° Southwest 308 354 13,700  Level Chicago Center
Sat 06:13:00 PM 41.4632 -88.2821 207° Southwest  Level Estimated
Sat 06:13:12 PM 41.5331 -88.0983 206° Southwest 372 428 15,900  Level Chicago Center
Sat 06:14:14 PM 41.4222 -88.1683 205° Southwest 384 442 19,100 2,488 Climbing Chicago Center
Sat 06:15:15 PM 41.3214 -88.2172 200° South 397 457 21,000 2,098 Climbing Chicago Center
Sat 06:16:17 PM 41.2147 -88.2658 199° South 409 471 23,400 2,081 Climbing Chicago Center
Sat 06:17:19 PM 41.1053 -88.3144 199° South 414 476 25,300 1,756 Climbing Chicago Center
Sat 06:18:20 PM 41.0092 -88.3936 212° Southwest 408 470 27,000 1,659 Climbing Chicago Center
Sat 06:19:22 PM 40.8969 -88.5014 216° Southwest 414 476 28,700 1,854 Climbing Chicago Center
Sat 06:20:23 PM 40.8039 -88.5956 217° Southwest 421 484 30,800 1,610 Climbing Chicago Center
Sat 06:21:25 PM 40.7144 -88.6850 217° Southwest 407 468 32,000 581 Climbing Chicago Center
Sat 06:22:27 PM 40.6256 -88.7722 217° Southwest 401 461 32,000 293 Level Chicago Center
Sat 06:23:28 PM 40.5303 -88.8669 217° Southwest 398 458 32,600 732 Climbing Chicago Center
Sat 06:24:30 PM 40.4436 -88.9550 218° Southwest 393 452 33,500 683 Climbing Chicago Center
Sat 06:25:31 PM 40.3556 -89.0414 217° Southwest 393 452 34,000 244 Climbing Chicago Center
Sat 06:26:33 PM 40.2650 -89.1303 217° Southwest 400 460 34,000  Level Chicago Center
Sat 06:27:35 PM 40.1761 -89.2167 217° Southwest 399 459 34,000  Level Chicago Center
Sat 06:28:33 PM 40.0867 -89.3061 217° Southwest 396 456 34,000  Level Kansas Center
Sat 06:29:33 PM 39.9972 -89.3942 217° Southwest 399 459 34,000  Level Kansas Center
Sat 06:30:39 PM 39.9086 -89.4792 216° Southwest 402 463 34,000  Level Chicago Center
Sat 06:31:41 PM 39.8006 -89.5828 216° Southwest 401 461 34,000  Level Chicago Center
Sat 06:32:40 PM 39.7297 -89.6550 218° Southwest 398 458 34,000  Level Kansas Center
Sat 06:33:40 PM 39.6372 -89.7436 216° Southwest 396 456 34,000  Level Kansas Center
Sat 06:34:43 PM 39.5483 -89.8294 217° Southwest 399 459 34,000  Level Kansas Center
Sat 06:35:43 PM 39.4600 -89.9147 217° Southwest 398 458 34,000  Level Kansas Center
Sat 06:36:44 PM 39.3558 -90.0161 217° Southwest 394 453 34,000  Level Kansas Center
Sat 06:37:46 PM 39.2669 -90.0997 216° Southwest 395 455 34,000  Level Kansas Center
Sat 06:38:47 PM 39.1781 -90.1833 216° Southwest 397 457 34,000  Level Kansas Center
Sat 06:39:51 PM 39.0883 -90.2678 216° Southwest 400 460 34,000  Level Kansas Center
Sat 06:40:50 PM 38.9986 -90.3525 216° Southwest 401 461 34,000  Level Kansas Center
Sat 06:41:52 PM 38.9047 -90.4408 216° Southwest 397 457 34,000  Level Kansas Center
Sat 06:42:55 PM 38.8169 -90.5283 218° Southwest 397 457 34,000  Level Kansas Center
Sat 06:43:56 PM 38.7369 -90.6231 223° Southwest 393 452 34,000  Level Kansas Center
Sat 06:44:57 PM 38.6506 -90.7228 222° Southwest 391 450 34,000  Level Kansas Center
Sat 06:46:00 PM 38.5700 -90.8153 222° Southwest 392 451 34,000  Level Kansas Center
Sat 06:47:02 PM 38.4892 -90.9083 222° Southwest 393 452 34,000  Level Kansas Center
Sat 06:48:02 PM 38.4078 -91.0017 222° Southwest 394 453 34,000  Level Kansas Center
Sat 06:49:03 PM 38.3103 -91.1122 222° Southwest 392 451 34,000  Level Kansas Center
Sat 06:50:07 PM 38.2317 -91.2019 222° Southwest 382 440 34,000  Level Kansas Center
Sat 06:51:08 PM 38.1528 -91.2914 222° Southwest 382 440 34,000  Level Kansas Center
Sat 06:52:09 PM 38.0711 -91.3839 222° Southwest 387 445 34,000  Level Kansas Center
Sat 06:53:12 PM 37.9911 -91.4747 222° Southwest 386 444 34,000  Level Kansas Center
Sat 06:54:12 PM 37.9089 -91.5681 222° Southwest 390 449 34,000  Level Kansas Center
Sat 06:55:15 PM 37.8250 -91.6619 221° Southwest 393 452 34,000  Level Kansas Center
Sat 06:56:17 PM 37.7400 -91.7575 222° Southwest 401 461 34,000  Level Kansas Center
Sat 06:57:16 PM 37.6403 -91.8686 221° Southwest 396 456 34,000  Level Kansas Center
Sat 06:58:19 PM 37.5578 -91.9617 222° Southwest 394 453 34,000  Level Kansas Center
Sat 06:59:20 PM 37.4753 -92.0536 222° Southwest 394 453 34,000  Level Kansas Center
Sat 07:00:22 PM 37.3925 -92.1444 221° Southwest 392 451 34,000  Level Kansas Center
Sat 07:01:22 PM 37.3106 -92.2342 221° Southwest 390 449 34,000  Level Kansas Center
Sat 07:02:24 PM 37.2283 -92.3244 221° Southwest 389 448 34,000  Level Kansas Center
Sat 07:03:27 PM 37.1453 -92.4153 221° Southwest 391 450 34,000  Level Kansas Center
Sat 07:04:29 PM 37.0636 -92.5056 221° Southwest 391 450 34,000  Level Kansas Center
Sat 07:05:30 PM 36.9806 -92.5961 221° Southwest 392 451 34,000  Level Kansas Center
Sat 07:06:31 PM 36.8983 -92.6850 221° Southwest 391 450 34,000  Level Kansas Center
Sat 07:07:34 PM 36.8139 -92.7739 220° Southwest 395 455 34,000  Level Kansas Center
Sat 07:08:35 PM 36.7139 -92.8808 221° Southwest 394 453 34,000  Level Kansas Center
Sat 07:09:42 PM 36.6294 -92.9736 221° Southwest 394 453 34,000  Level Memphis Center
Sat 07:10:42 PM 36.5483 -93.0614 221° Southwest 394 453 34,000  Level Memphis Center
Sat 07:11:42 PM 36.4653 -93.1489 220° Southwest 394 453 34,000  Level Memphis Center
Sat 07:12:42 PM 36.3733 -93.2464 221° Southwest 394 453 34,000  Level Memphis Center
Sat 07:13:42 PM 36.2922 -93.3283 219° Southwest 394 453 34,000  Level Memphis Center
Sat 07:14:42 PM 36.2128 -93.4156 222° Southwest 394 453 34,000  Level Memphis Center
Sat 07:15:42 PM 36.1275 -93.4944 217° Southwest 389 448 34,000  Level Memphis Center
Sat 07:16:42 PM 36.0381 -93.5656 213° Southwest 389 448 34,000 -100 Level Memphis Center
Sat 07:17:42 PM 35.9508 -93.6367 213° Southwest 389 448 33,800 -500 Descending Memphis Center
Sat 07:18:42 PM 35.8614 -93.7072 213° Southwest 389 448 33,000 -800 Descending Memphis Center
Sat 07:19:42 PM 35.7719 -93.7778 213° Southwest 384 442 32,200 -500 Descending Memphis Center
Sat 07:20:42 PM 35.6822 -93.8508 213° Southwest 384 442 32,000 -100 Descending Memphis Center
Sat 07:21:42 PM 35.5906 -93.9261 214° Southwest 391 450 32,000  Level Memphis Center
Sat 07:22:42 PM 35.4986 -93.9986 213° Southwest 398 458 32,000  Level Memphis Center
Sat 07:23:42 PM 35.4047 -94.0711 212° Southwest 403 464 32,000  Level Memphis Center
Sat 07:24:42 PM 35.3150 -94.1458 214° Southwest 403 464 32,000  Level Memphis Center
Sat 07:25:42 PM 35.2253 -94.2156 212° Southwest 403 464 32,000  Level Memphis Center
Sat 07:27:39 PM 35.0539 -94.3522 213° Southwest 389 448 32,000  Level Fort Center
Sat 07:28:39 PM 34.9619 -94.4267 214° Southwest 384 442 32,000  Level Fort Center
Sat 07:29:39 PM 34.8717 -94.4931 211° Southwest 384 442 32,000  Level Fort Center
Sat 07:30:39 PM 34.7714 -94.5772 215° Southwest 389 448 32,000  Level Fort Center
Sat 07:31:39 PM 34.6833 -94.6458 213° Southwest 389 448 32,000  Level Fort Center
Sat 07:32:39 PM 34.5908 -94.7169 212° Southwest 389 448 32,000  Level Fort Center
Sat 07:33:39 PM 34.5025 -94.7828 212° Southwest 382 440 32,000  Level Fort Center
Sat 07:34:39 PM 34.4100 -94.8511 211° Southwest 382 440 32,000  Level Fort Center
Sat 07:35:39 PM 34.3219 -94.9217 214° Southwest 382 440 32,000  Level Fort Center
Sat 07:36:39 PM 34.2294 -94.9919 212° Southwest 382 440 32,000  Level Fort Center
Sat 07:37:39 PM 34.1389 -95.0622 213° Southwest 382 440 32,000  Level Fort Center
Sat 07:38:39 PM 34.0464 -95.1325 212° Southwest 387 445 32,000  Level Fort Center
Sat 07:39:39 PM 33.9556 -95.2000 212° Southwest 387 445 32,000  Level Fort Center
Sat 07:40:39 PM 33.8711 -95.2647 212° Southwest 395 455 32,000  Level Fort Center
Sat 07:41:39 PM 33.7806 -95.3317 212° Southwest 395 455 32,000  Level Fort Center
Sat 07:42:39 PM 33.6878 -95.4014 212° Southwest 395 455 32,000  Level Fort Center
Sat 07:43:39 PM 33.5992 -95.4683 212° Southwest 395 455 32,000  Level Fort Center
Sat 07:44:39 PM 33.5061 -95.5375 212° Southwest 389 448 32,000  Level Fort Center
Sat 07:45:39 PM 33.4092 -95.6094 212° Southwest 380 437 32,000  Level Fort Center
Sat 07:46:39 PM 33.3264 -95.6706 212° Southwest 385 443 32,000  Level Fort Center
Sat 07:47:39 PM 33.2336 -95.7419 213° Southwest 391 450 32,000  Level Fort Center
Sat 07:48:39 PM 33.1406 -95.8083 211° Southwest 385 443 32,000 -350 Level Fort Center
Sat 07:49:39 PM 33.0475 -95.8769 212° Southwest 385 443 31,300 -800 Descending Fort Center
Sat 07:50:39 PM 32.9583 -95.9453 213° Southwest 390 449 30,400 -650 Descending Fort Center
Sat 07:51:39 PM 32.8611 -96.0161 211° Southwest 390 449 30,000 -200 Descending Fort Center
Sat 07:52:39 PM 32.7597 -96.0917 212° Southwest 390 449 30,000  Level Fort Center
Sat 07:53:39 PM 32.6664 -96.1597 212° Southwest 395 455 30,000  Level Fort Center
Sat 07:54:39 PM 32.5731 -96.2278 212° Southwest 400 460 30,000  Level Fort Center
Sat 07:55:39 PM 32.4797 -96.2953 211° Southwest 400 460 30,000  Level Fort Center
Sat 07:56:39 PM 32.3844 -96.3653 212° Southwest 405 466 30,000  Level Fort Center
Sat 07:57:39 PM 32.2931 -96.4328 212° Southwest 405 466 30,000 -300 Level Fort Center
Sat 07:58:39 PM 32.1997 -96.5000 211° Southwest 405 466 29,400 -700 Descending Fort Center
Sat 07:59:39 PM 32.1144 -96.5622 212° Southwest 405 466 28,600 -900 Descending Fort Center
Sat 08:00:39 PM 32.0208 -96.6292 211° Southwest 410 472 27,600 -1,000 Descending Fort Center
Sat 08:01:39 PM 31.9275 -96.6961 211° Southwest 410 472 26,600 -1,000 Descending Fort Center
Sat 08:02:39 PM 31.8317 -96.7653 212° Southwest 410 472 25,600 -1,000 Descending Fort Center
Sat 08:03:39 PM 31.7422 -96.8294 211° Southwest 394 453 24,600 -1,000 Descending Fort Center
Sat 08:04:39 PM 31.6506 -96.8983 213° Southwest 394 453 23,600 -968 Descending Fort Center
Sat 08:05:12 PM 31.6028 -96.9283 208° Southwest 382 440 23,100 -1,011 Descending Houston Center
Sat 08:06:14 PM 31.5122 -96.9944 212° Southwest 380 437 22,000 -537 Descending Houston Center
Sat 08:07:15 PM 31.4058 -97.0689 211° Southwest 379 436 22,000  Level Houston Center
Sat 08:08:16 PM 31.3156 -97.1336 211° Southwest 377 434 22,000 -537 Level Houston Center
Sat 08:09:18 PM 31.2161 -97.1825 203° Southwest 385 443 20,900 -1,512 Descending Houston Center
Sat 08:10:19 PM 31.1144 -97.2256 200° South 385 443 18,900 -1,721 Descending Houston Center
Sat 08:11:20 PM 31.0183 -97.2700 202° Southwest 374 430 17,400 -1,854 Descending Houston Center
Sat 08:12:22 PM 30.9158 -97.3158 201° Southwest 369 425 15,100 -1,951 Descending Houston Center
Sat 08:13:23 PM 30.8339 -97.3531 201° Southwest 361 415 13,400 -1,805 Descending Houston Center
Sat 08:14:25 PM 30.7436 -97.3942 201° Southwest 347 399 11,400 -1,707 Descending Houston Center
Sat 08:15:26 PM 30.6636 -97.4597 215° Southwest 302 348 9,900 -1,721 Descending Houston Center
Sat 08:16:27 PM 30.6039 -97.5089 215° Southwest 270 311 7,900 -1,869 Descending Houston Center
Sat 08:17:28 PM 30.5450 -97.5553 214° Southwest 257 296 6,100 -1,561 Descending Houston Center
Sat 08:18:30 PM 30.4800 -97.5889 204° Southwest 253 291 4,700 -1,220 Descending Houston Center
Sat 08:19:31 PM 30.4147 -97.6206 203° Southwest 253 291 3,600 -689 Descending Houston Center
Sat 08:20:32 PM 30.3639 -97.6486 205° Southwest 211 243 3,300 -295 Descending Houston Center

Login

Don't have an account? Register now (free) for customized features, flight alerts, and more!